createdAt,value
2023-01-25T00:01:22.959Z,101411.33
2023-01-25T00:03:51.312Z,101409.65
2023-01-25T00:06:19.993Z,101416.05
2023-01-25T00:08:51.653Z,101416.66
2023-01-25T00:11:20.952Z,101419.78
2023-01-25T00:13:49.638Z,101419.18
2023-01-25T00:16:17.931Z,101419.46
2023-01-25T00:18:46.063Z,101420.13
2023-01-25T00:21:19.291Z,101419.04
2023-01-25T00:23:47.572Z,101417.02
2023-01-25T00:26:16.284Z,101417.17
2023-01-25T00:28:51.792Z,101412.06
2023-01-25T00:31:55.540Z,101407.64
2023-01-25T00:34:27.338Z,101401.61
2023-01-25T00:37:03.527Z,101400.64
2023-01-25T00:39:31.909Z,101400.40
2023-01-25T00:42:00.305Z,101399.11
2023-01-25T00:44:28.942Z,101396.58
2023-01-25T00:46:57.747Z,101394.66
2023-01-25T00:49:27.174Z,101391.19
2023-01-25T00:51:58.114Z,101387.16
2023-01-25T00:54:26.597Z,101389.89
2023-01-25T00:56:56.698Z,101389.79
2023-01-25T00:59:25.285Z,101389.33
2023-01-25T01:01:54.412Z,101385.91
2023-01-25T01:04:26.243Z,101385.85
2023-01-25T01:06:54.749Z,101379.48
2023-01-25T01:09:23.636Z,101380.15
2023-01-25T01:11:53.509Z,101379.00
2023-01-25T01:14:22.351Z,101384.77
2023-01-25T01:16:55.893Z,101386.96
2023-01-25T01:19:25.553Z,101387.95
2023-01-25T01:21:54.054Z,101386.79
2023-01-25T01:24:23.818Z,101384.50
2023-01-25T01:26:52.232Z,101380.16
2023-01-25T01:29:20.409Z,101385.35
2023-01-25T01:31:52.801Z,101386.70
2023-01-25T01:34:24.742Z,101382.29
2023-01-25T01:36:53.568Z,101380.42
2023-01-25T01:39:21.988Z,101379.30
2023-01-25T01:41:50.429Z,101378.50
2023-01-25T01:44:20.725Z,101382.17
2023-01-25T01:46:55.321Z,101378.55
2023-01-25T01:49:29.677Z,101376.63
2023-01-25T01:52:10.035Z,101373.30
2023-01-25T01:54:49.585Z,101371.61
2023-01-25T01:57:31.687Z,101372.38
2023-01-25T02:00:14.166Z,101374.27
2023-01-25T02:02:42.951Z,101367.83
2023-01-25T02:05:22.012Z,101361.04
2023-01-25T02:07:52.053Z,101361.77
2023-01-25T02:10:21.228Z,101362.21
2023-01-25T02:12:50.424Z,101357.98
2023-01-25T02:15:18.601Z,101358.04
2023-01-25T02:17:46.988Z,101358.40
2023-01-25T02:20:19.399Z,101354.25
2023-01-25T02:22:53.673Z,101351.44
2023-01-25T02:25:21.959Z,101349.58
2023-01-25T02:27:55.560Z,101347.96
2023-01-25T02:30:25.068Z,101344.75
2023-01-25T02:32:53.443Z,101345.05
2023-01-25T02:35:23.681Z,101344.34
2023-01-25T02:37:52.054Z,101343.16
2023-01-25T02:40:20.371Z,101342.00
2023-01-25T02:42:48.810Z,101344.36
2023-01-25T02:45:18.006Z,101343.89
2023-01-25T02:47:48.845Z,101344.92
2023-01-25T02:50:17.262Z,101349.14
2023-01-25T02:52:45.619Z,101348.06
2023-01-25T02:55:13.988Z,101347.98
2023-01-25T02:57:43.394Z,101350.80
2023-01-25T03:00:12.567Z,101349.44
2023-01-25T03:02:40.783Z,101344.10
2023-01-25T03:05:10.250Z,101341.67
2023-01-25T03:07:39.795Z,101342.70
2023-01-25T03:10:10.549Z,101346.63
2023-01-25T03:12:38.902Z,101343.44
2023-01-25T03:15:08.728Z,101340.31
2023-01-25T03:17:37.713Z,101343.27
2023-01-25T03:20:06.972Z,101344.86
2023-01-25T03:22:35.393Z,101341.52
2023-01-25T03:25:03.875Z,101343.87
2023-01-25T03:27:32.256Z,101340.20
2023-01-25T03:30:11.502Z,101339.39
2023-01-25T03:32:39.771Z,101347.31
2023-01-25T03:35:11.017Z,101347.45
2023-01-25T03:37:39.834Z,101348.58
2023-01-25T03:40:09.273Z,101349.84
2023-01-25T03:42:37.998Z,101349.64
2023-01-25T03:45:07.334Z,101351.49
2023-01-25T03:47:36.347Z,101354.48
2023-01-25T03:50:07.809Z,101355.66
2023-01-25T03:52:45.657Z,101355.37
2023-01-25T03:55:13.938Z,101349.92
2023-01-25T03:57:43.336Z,101350.13
2023-01-25T04:00:13.027Z,101352.52
2023-01-25T04:02:46.954Z,101355.14
2023-01-25T04:05:17.895Z,101358.42
2023-01-25T04:07:46.587Z,101360.60
2023-01-25T04:10:15.986Z,101359.27
2023-01-25T04:12:47.746Z,101362.99
2023-01-25T04:15:16.693Z,101357.16
2023-01-25T04:17:44.877Z,101354.81
2023-01-25T04:20:19.032Z,101352.33
2023-01-25T04:22:47.391Z,101357.58
2023-01-25T04:25:16.286Z,101357.08
2023-01-25T04:27:50.447Z,101356.92
2023-01-25T04:30:18.905Z,101358.42
2023-01-25T04:32:47.615Z,101358.35
2023-01-25T04:35:32.051Z,101359.14
2023-01-25T04:38:00.900Z,101358.28
2023-01-25T04:40:35.875Z,101359.04
2023-01-25T04:43:04.768Z,101358.17
2023-01-25T04:45:33.376Z,101362.15
2023-01-25T04:48:04.907Z,101361.30
2023-01-25T04:50:34.837Z,101357.42
2023-01-25T04:53:04.091Z,101356.93
2023-01-25T04:55:34.168Z,101355.99
2023-01-25T04:58:02.789Z,101358.67
2023-01-25T05:00:32.663Z,101361.42
2023-01-25T05:03:01.579Z,101358.64
2023-01-25T05:05:30.436Z,101359.86
2023-01-25T05:08:00.040Z,101362.92
2023-01-25T05:10:28.354Z,101361.19
2023-01-25T05:13:22.991Z,101364.08
2023-01-25T05:15:57.776Z,101368.92
2023-01-25T05:18:29.079Z,101370.08
2023-01-25T05:20:59.329Z,101373.79
2023-01-25T05:23:28.624Z,101370.81
2023-01-25T05:26:15.652Z,101374.61
2023-01-25T05:28:44.252Z,101368.95
2023-01-25T05:31:38.862Z,101369.29
2023-01-25T05:34:07.199Z,101365.86
2023-01-25T05:36:35.495Z,101359.77
2023-01-25T05:39:09.387Z,101353.98
2023-01-25T05:41:37.877Z,101356.36
2023-01-25T05:44:06.258Z,101356.23
2023-01-25T05:46:37.063Z,101355.34
2023-01-25T05:49:05.578Z,101356.99
2023-01-25T05:51:35.814Z,101357.19
2023-01-25T05:54:05.918Z,101360.63
2023-01-25T05:56:35.432Z,101355.53
2023-01-25T05:59:03.701Z,101359.05
2023-01-25T06:01:31.786Z,101362.02
2023-01-25T06:04:00.874Z,101366.01
2023-01-25T06:06:29.877Z,101365.67
2023-01-25T06:08:58.233Z,101366.70
2023-01-25T06:11:27.137Z,101367.10
2023-01-25T06:13:56.818Z,101366.15
2023-01-25T06:16:25.040Z,101364.54
2023-01-25T06:18:56.179Z,101358.48
2023-01-25T06:21:47.706Z,101359.77
2023-01-25T06:24:16.036Z,101360.63
2023-01-25T06:26:44.970Z,101362.30
2023-01-25T06:29:13.555Z,101362.63
2023-01-25T06:31:41.861Z,101362.52
2023-01-25T06:34:10.932Z,101358.48
2023-01-25T06:36:39.309Z,101354.95
2023-01-25T06:39:07.598Z,101351.29
2023-01-25T06:41:37.573Z,101354.37
2023-01-25T06:44:05.803Z,101364.69
2023-01-25T06:46:35.942Z,101362.52
2023-01-25T06:49:04.610Z,101364.20
2023-01-25T06:51:33.107Z,101358.02
2023-01-25T06:54:02.660Z,101352.61
2023-01-25T06:56:33.050Z,101348.86
2023-01-25T06:59:01.611Z,101351.98
2023-01-25T07:01:30.816Z,101346.66
2023-01-25T07:04:02.349Z,101346.31
2023-01-25T07:06:33.554Z,101345.42
2023-01-25T07:09:04.313Z,101347.11
2023-01-25T07:11:32.843Z,101344.47
2023-01-25T07:14:01.282Z,101340.17
2023-01-25T07:16:36.616Z,101344.06
2023-01-25T07:19:05.881Z,101345.25
2023-01-25T07:21:34.242Z,101349.86
2023-01-25T07:24:03.861Z,101344.13
2023-01-25T07:26:32.374Z,101342.40
2023-01-25T07:29:00.837Z,101345.11
2023-01-25T07:31:30.262Z,101344.92
2023-01-25T07:33:58.821Z,101338.59
2023-01-25T07:36:27.067Z,101335.44
2023-01-25T07:38:56.403Z,101337.05
2023-01-25T07:41:25.159Z,101332.36
2023-01-25T07:47:15.677Z,101331.86
2023-01-25T07:49:43.822Z,101331.86
2023-01-25T07:52:14.797Z,101329.73
2023-01-25T07:54:48.378Z,101330.14
2023-01-25T07:57:17.600Z,101330.20
2023-01-25T07:59:47.614Z,101333.64
2023-01-25T08:02:16.408Z,101334.20
2023-01-25T08:04:45.673Z,101328.05
2023-01-25T08:07:14.417Z,101325.04
2023-01-25T08:09:48.000Z,101326.84
2023-01-25T08:12:17.715Z,101325.61
2023-01-25T08:14:46.090Z,101323.58
2023-01-25T08:17:14.778Z,101324.45
2023-01-25T08:20:08.459Z,101328.79
2023-01-25T08:22:37.251Z,101328.84
2023-01-25T08:25:06.850Z,101331.81
2023-01-25T08:27:38.310Z,101336.80
2023-01-25T08:30:07.826Z,101336.11
2023-01-25T08:32:39.263Z,101335.39
2023-01-25T08:35:10.891Z,101332.61
2023-01-25T08:37:39.403Z,101327.91
2023-01-25T08:40:08.989Z,101324.43
2023-01-25T08:42:43.354Z,101326.42
2023-01-25T08:45:11.853Z,101325.46
2023-01-25T08:47:40.198Z,101325.17
2023-01-25T08:50:13.806Z,101323.95
2023-01-25T08:52:42.287Z,101324.22
2023-01-25T08:55:10.763Z,101323.70
2023-01-25T08:57:39.252Z,101326.84
2023-01-25T09:00:09.028Z,101334.43
2023-01-25T09:02:37.812Z,101332.55
2023-01-25T09:05:07.546Z,101334.06
2023-01-25T09:07:38.827Z,101329.16
2023-01-25T09:10:09.420Z,101325.21
2023-01-25T09:12:41.220Z,101327.87
2023-01-25T09:15:10.527Z,101331.42
2023-01-25T09:17:39.617Z,101327.81
2023-01-25T09:20:09.440Z,101325.41
2023-01-25T09:22:37.906Z,101324.19
2023-01-25T09:25:06.709Z,101326.28
2023-01-25T09:27:35.079Z,101324.92
2023-01-25T09:31:10.739Z,101328.48
2023-01-25T09:34:05.137Z,101325.60
2023-01-25T09:36:33.809Z,101320.85
2023-01-25T09:39:02.085Z,101319.59
2023-01-25T09:41:49.825Z,101317.55
2023-01-25T09:44:37.149Z,101323.80
2023-01-25T09:47:12.418Z,101319.30
2023-01-25T09:49:59.634Z,101313.48
2023-01-25T09:52:46.931Z,101309.27
2023-01-25T09:55:16.074Z,101302.35
2023-01-25T09:57:45.593Z,101302.72
2023-01-25T10:00:19.664Z,101295.20
2023-01-25T10:03:08.526Z,101292.14
2023-01-25T10:05:42.973Z,101289.56
2023-01-25T10:08:44.904Z,101281.73
2023-01-25T10:11:39.501Z,101281.40
2023-01-25T10:14:13.717Z,101280.81
2023-01-25T10:16:44.177Z,101278.11
2023-01-25T10:19:23.006Z,101276.38
2023-01-25T10:21:56.701Z,101272.96
2023-01-25T10:24:55.882Z,101265.65
2023-01-25T10:27:57.854Z,101263.08
2023-01-25T10:30:30.860Z,101256.43
2023-01-25T10:33:01.425Z,101251.77
2023-01-25T10:35:40.287Z,101246.61
2023-01-25T10:38:25.778Z,101239.21
2023-01-25T10:41:03.165Z,101233.94
2023-01-25T10:43:31.758Z,101236.55
2023-01-25T10:46:00.008Z,101234.94
2023-01-25T10:48:34.368Z,101225.52
2023-01-25T10:51:02.738Z,101230.17
2023-01-25T10:53:34.703Z,101226.39
2023-01-25T10:56:12.139Z,101221.77
2023-01-25T10:58:46.525Z,101214.10
2023-01-25T11:01:31.968Z,101214.56
2023-01-25T11:04:01.597Z,101215.36
2023-01-25T11:06:38.282Z,101208.26
2023-01-25T11:09:29.834Z,101202.69
2023-01-25T11:12:03.607Z,101206.36
2023-01-25T11:14:32.536Z,101203.11
2023-01-25T11:17:03.749Z,101197.41
2023-01-25T11:19:32.043Z,101196.19
2023-01-25T11:22:02.562Z,101198.02
2023-01-25T11:24:35.083Z,101197.66
2023-01-25T11:27:32.881Z,101196.29
2023-01-25T11:30:19.413Z,101191.09
2023-01-25T11:32:47.454Z,101189.20
2023-01-25T11:35:21.234Z,101193.54
2023-01-25T11:38:17.327Z,101186.18
2023-01-25T11:40:48.069Z,101183.54
2023-01-25T11:43:32.120Z,101182.49
2023-01-25T11:46:13.212Z,101176.77
2023-01-25T11:49:05.839Z,101177.77
2023-01-25T11:52:13.348Z,101170.73
2023-01-25T11:54:57.074Z,101168.20
2023-01-25T11:57:43.330Z,101169.90
2023-01-25T12:00:20.467Z,101169.44
2023-01-25T12:03:24.447Z,101171.13
2023-01-25T12:06:25.314Z,101170.67
2023-01-25T12:08:58.018Z,101171.16
2023-01-25T12:11:35.278Z,101166.22
2023-01-25T12:14:26.618Z,101164.73
2023-01-25T12:16:57.616Z,101162.80
2023-01-25T12:19:35.200Z,101159.20
2023-01-25T12:22:18.777Z,101158.80
2023-01-25T12:25:22.911Z,101160.15
2023-01-25T12:28:29.698Z,101164.77
2023-01-25T12:31:14.924Z,101169.91
2023-01-25T12:33:52.861Z,101163.16
2023-01-25T12:36:44.065Z,101162.30
2023-01-25T12:39:30.905Z,101161.01
2023-01-25T12:42:05.014Z,101161.65
2023-01-25T12:44:39.084Z,101157.95
2023-01-25T12:47:45.496Z,101157.73
2023-01-25T12:50:49.369Z,101156.29
2023-01-25T12:53:23.729Z,101154.80
2023-01-25T12:55:52.324Z,101153.88
2023-01-25T12:58:44.045Z,101150.99
2023-01-25T13:01:26.994Z,101152.09
2023-01-25T13:04:28.208Z,101150.19
2023-01-25T13:07:54.603Z,101150.65
2023-01-25T13:10:29.586Z,101147.59
2023-01-25T13:13:05.244Z,101147.52
2023-01-25T13:15:43.554Z,101147.27
2023-01-25T13:18:28.547Z,101145.11
2023-01-25T13:21:00.731Z,101146.00
2023-01-25T16:26:22.859Z,101049.04
2023-01-25T16:28:53.159Z,101057.88
2023-01-25T16:31:31.987Z,101057.31
2023-01-25T16:34:00.602Z,101059.66
2023-01-25T16:36:27.684Z,101049.76
2023-01-25T16:38:54.643Z,101055.61
2023-01-25T16:41:21.438Z,101053.16
2023-01-25T16:43:48.426Z,101055.41
2023-01-25T16:46:16.977Z,101055.25
2023-01-25T16:48:44.584Z,101050.68
2023-01-25T16:51:22.274Z,101046.83
2023-01-25T16:53:55.155Z,101046.73
2023-01-25T16:56:23.637Z,101043.64
2023-01-25T16:58:50.814Z,101046.26
2023-01-25T17:01:18.636Z,101052.44
2023-01-25T17:03:45.911Z,101052.61
2023-01-25T17:06:24.684Z,101050.63
2023-01-25T17:09:00.325Z,101049.41
2023-01-25T17:11:28.678Z,101047.58
2023-01-25T17:13:56.942Z,101048.13
2023-01-25T17:16:25.337Z,101049.77
2023-01-25T17:18:55.851Z,101050.60
2023-01-25T17:21:22.797Z,101052.06
2023-01-25T17:23:49.678Z,101051.50
2023-01-25T17:26:17.534Z,101043.97
2023-01-25T17:28:44.765Z,101043.03
2023-01-25T17:31:16.156Z,101041.86
2023-01-25T17:33:43.542Z,101034.48
2023-01-25T17:36:10.510Z,101035.56
2023-01-25T17:38:40.365Z,101032.95
2023-01-25T17:41:08.364Z,101032.11
2023-01-25T17:43:35.354Z,101036.36
2023-01-25T17:46:25.602Z,101033.08
2023-01-25T17:48:52.595Z,101032.41
2023-01-25T17:51:24.660Z,101029.52
2023-01-25T17:53:52.532Z,101025.73
2023-01-25T17:56:19.803Z,101026.91
2023-01-25T17:58:46.829Z,101027.91
2023-01-25T18:01:19.043Z,101023.94
2023-01-25T18:03:46.467Z,101020.45
2023-01-25T18:06:19.359Z,101025.07
2023-01-25T18:08:48.217Z,101024.42
2023-01-25T18:11:16.971Z,101024.31
2023-01-25T18:13:49.029Z,101029.81
2023-01-25T18:16:16.854Z,101030.34
2023-01-25T18:18:44.222Z,101032.34
2023-01-25T18:21:13.046Z,101033.25
2023-01-25T18:23:40.900Z,101038.11
2023-01-25T18:26:16.024Z,101037.63
2023-01-25T18:28:43.525Z,101032.06
2023-01-25T18:31:10.386Z,101034.23
2023-01-25T18:33:37.884Z,101036.17
2023-01-25T18:36:05.474Z,101036.09
2023-01-25T18:38:34.773Z,101039.87
2023-01-25T18:41:01.499Z,101039.75
2023-01-25T18:43:28.460Z,101041.31
2023-01-25T18:45:56.021Z,101045.11
2023-01-25T18:48:30.162Z,101046.45
2023-01-25T18:51:09.275Z,101043.40
2023-01-25T18:53:37.369Z,101039.32
2023-01-25T18:56:09.259Z,101032.84
2023-01-25T18:58:42.609Z,101029.05
2023-01-25T19:01:17.748Z,101030.95
2023-01-25T19:03:45.268Z,101029.16
2023-01-25T19:06:14.196Z,101025.74
2023-01-25T19:08:43.577Z,101024.33
2023-01-25T19:11:14.614Z,101025.38
2023-01-25T19:13:41.978Z,101025.91
2023-01-25T19:16:13.373Z,101028.96
2023-01-25T19:18:45.762Z,101027.34
2023-01-25T19:21:13.874Z,101025.97
2023-01-25T19:23:40.663Z,101025.04
2023-01-25T19:26:08.295Z,101020.80
2023-01-25T19:28:35.400Z,101025.45
2023-01-25T19:31:09.749Z,101021.59
2023-01-25T19:33:37.308Z,101020.31
2023-01-25T19:36:06.078Z,101025.06
2023-01-25T19:38:39.808Z,101021.61
2023-01-25T19:41:07.889Z,101016.51
2023-01-25T19:43:40.812Z,101016.09
2023-01-25T19:46:09.081Z,101009.48
2023-01-25T19:48:38.401Z,101011.09
2023-01-25T19:51:15.434Z,101012.45
2023-01-25T19:53:45.833Z,101012.87
2023-01-25T19:56:16.832Z,101007.77
2023-01-25T19:58:45.908Z,101007.34
2023-01-25T20:01:14.590Z,101005.33
2023-01-25T20:03:41.632Z,101002.44
2023-01-25T20:06:08.610Z,101003.16
2023-01-25T20:08:37.502Z,101003.40
2023-01-25T20:11:15.414Z,101002.83
2023-01-25T20:13:42.431Z,101005.02
2023-01-25T20:16:10.013Z,100999.30
2023-01-25T20:18:38.139Z,101000.50
2023-01-25T20:21:36.057Z,100999.90
2023-01-25T20:24:03.847Z,100999.96
2023-01-25T20:26:35.505Z,100994.89
2023-01-25T20:29:02.613Z,100998.33
2023-01-25T20:31:33.150Z,101000.20
2023-01-25T20:34:01.967Z,101004.34
2023-01-25T20:36:30.067Z,101003.87
2023-01-25T20:38:56.999Z,101004.35
2023-01-25T20:41:24.293Z,101002.45
2023-01-25T20:44:01.200Z,101006.10
2023-01-25T20:46:29.160Z,101002.48
2023-01-25T20:48:55.894Z,101000.24
2023-01-25T20:51:26.719Z,100996.60
2023-01-25T20:53:54.269Z,100994.85
2023-01-25T20:56:21.586Z,100994.22
2023-01-25T20:58:52.071Z,100993.39
2023-01-25T21:01:23.473Z,100994.23
2023-01-25T21:03:50.539Z,100988.98
2023-01-25T21:06:17.385Z,100992.85
2023-01-25T21:08:44.341Z,100988.75
2023-01-25T21:11:12.708Z,100983.53
2023-01-25T21:13:39.668Z,100984.57
2023-01-25T21:16:11.519Z,100985.42
2023-01-25T21:18:40.502Z,100983.30
2023-01-25T21:21:12.277Z,100980.77
2023-01-25T21:23:44.553Z,100979.02
2023-01-25T21:26:16.494Z,100976.61
2023-01-25T21:28:44.124Z,100973.49
2023-01-25T21:31:13.385Z,100976.19
2023-01-25T21:33:40.512Z,100974.02
2023-01-25T21:36:13.773Z,100972.27
2023-01-25T21:38:45.524Z,100968.53
2023-01-25T21:41:21.015Z,100965.19
2023-01-25T21:44:07.274Z,100961.95
2023-01-25T21:46:34.114Z,100961.15
2023-01-25T21:49:24.334Z,100955.81
2023-01-25T21:51:52.594Z,100955.77
2023-01-25T21:54:20.324Z,100951.43
2023-01-25T21:56:48.163Z,100948.83
2023-01-25T21:59:15.236Z,100946.02
